Ursvikens väder

stationens status  
Klimatstatistik

Klimatstatistik


Report for 2010 Sep
                   Monthly Climatological Summary for sep 2010

Name: Ursviken   City:    State: 
Elevation: 35 m  Lat: N 64° 42' 41"   Lon: E 021° 10' 44"

                  Temperature (°C), Rain (mm), Wind Speed (m/s)

                                      Heat  Cool        Avg
    Mean                              Deg   Deg         Wind                 Dom
Day Temp  High   Time   Low    Time   Days  Days  Rain  Speed High   Time    Dir
----------------------------------------------------------------------------------
 1   9,1  15,3   00:00   2,8   00:00  14,3   0,0   1,2   0,7   5,8   00:00     V
 2   8,1  15,3   00:00   0,8   00:00  10,2   4,3   0,6   0,9   5,8   00:00   ---
 3   8,1  12,5   00:00   3,6   00:00  10,2   0,0   0,0   1,2   8,2   00:00   ---
 4   8,6  17,6   00:00  -0,5   00:00  18,0   0,0   0,0   0,4   3,7   00:00   VNV
 5  14,6  18,7   00:00  10,4   00:00   3,7   0,0   0,0   0,2   2,4   00:00   ---
 6  12,9  19,6   00:00   6,1   00:00   5,4   0,0   0,0   0,3   2,7   00:00   ---
 7  14,4  24,4   00:00   4,5   00:00   3,8   0,0   0,0   0,1   2,0   00:00   ---
 8  14,9  22,3   00:00   7,4   00:00   3,4   0,0   0,0   0,2   3,1   00:00   ---
 9  14,4  21,7   00:00   7,1   00:00   3,9   0,0   0,0   0,3   4,4   00:00   ---
10  12,7  20,4   00:00   5,0   00:00   5,6   0,0   0,0   0,2   3,1   00:00   ---
11  10,3  16,9   00:00   3,7   00:00   8,0   0,0   0,0   0,1   1,7   00:00   ---
12   9,6  13,6   00:00   5,7   00:00   8,6   0,0   7,8   0,2   3,7   00:00   ---
13  14,1  20,7   00:00   7,6   00:00   4,1   0,0   0,6   0,3   4,8   00:00   ---
14   9,4  15,0   00:00   3,9   00:00   8,8   0,0   0,0   0,6   6,1   00:00   ---
15  12,2  14,6   00:00   9,8   00:00   6,1   0,0  30,9   0,8   6,1   00:00   ---
16  12,4  16,1   00:00   8,8   00:00   5,8   0,0  10,2   0,9   5,1   00:00   ---
17  11,6  13,9   00:00   9,2   00:00   6,7   0,0  12,9   0,3   2,0   00:00   ---
18  11,3  17,2   00:00   5,4   00:00   7,0   0,0   1,2   0,1   2,0   00:00   ---
19  10,8  16,6   00:00   4,9   00:00   7,5   0,0  43,8   0,3   2,4   00:00   ---
20   9,9  18,1   00:00   1,7   00:00   8,4   0,0   0,0   0,2   2,7   00:00   ---
21   6,2  10,3   00:00   2,1   00:00  12,1   0,0  37,8   0,2   3,4   00:00   ---
22   8,9  13,5   00:00   4,4   00:00   9,3   0,0   0,0   0,4   4,1   00:00   ---
23  10,5  15,6   00:00   5,4   00:00   7,8   0,0   6,0   0,3   4,4   00:00   ---
24   5,8   8,4   00:00   3,3   00:00   1,8   0,0   3,3   0,4   3,7   00:00   OSO
25   6,4  12,0   00:00   0,9   00:00  11,8   0,0   9,3   0,5   4,1   00:00   ---
26   4,8  12,2   00:00  -2,5   00:00  13,4   0,0   0,6   0,2   3,1   00:00   ---
27   5,3  14,0   00:00  -3,3   00:00   6,3   0,0   0,0   0,1   2,0   00:00   NNV
28   6,3  15,5   00:00  -2,8   00:00  11,9   0,0   0,0   0,2   2,7   00:00   ---
29   7,0  14,1   00:00  -0,1   00:00  11,3   0,0   0,0   0,1   1,7   00:00   ---
30   5,3  12,3   00:00  -1,8   00:00  12,1   0,0   0,6   0,1   1,7   00:00   VNV
----------------------------------------------------------------------------------
     9,9  24,4     7    -3,3    27   248,1   4,3 166,8   0,4   8,2     3       N

Max >=  20,0:  5
Max <=   0,0:  0
Min <=   0,0:  6
Min <= -20,0:  0
Max Rain: 43,8 on day 19
Days of Rain: 15 (>= 0,2 mm)  9 (>= 2,0 mm)  3 (>= 20,0 mm)
Heat Base: 18,3  Cool Base: 18,3  Method: Integration
 
: nu: mätare: diagram: idag och igår: månad och år: rekord: månadsrekord: statistik:
Startsidan Ursviken Örviken

Välkommen till Lundströms väder
Väderstationen som används är en WH1080, Uppdaterad 2024-06-13 16:05:01
skapad av Cumulus v1.9.4 (10992)
Forum
sedan 22 dec 2012